createdAt,value
2023-05-03T00:00:02.987Z,5.17
2023-05-03T00:01:02.304Z,5.14
2023-05-03T00:02:03.643Z,5.10
2023-05-03T00:03:03.763Z,5.14
2023-05-03T00:04:03.356Z,5.14
2023-05-03T00:05:04.779Z,5.14
2023-05-03T00:06:03.809Z,5.12
2023-05-03T00:07:03.014Z,5.13
2023-05-03T00:08:02.902Z,5.16
2023-05-03T00:09:02.572Z,5.16
2023-05-03T00:10:03.219Z,5.16
2023-05-03T00:11:02.548Z,5.20
2023-05-03T00:12:03.131Z,5.22
2023-05-03T00:13:03.329Z,5.23
2023-05-03T00:14:03.465Z,5.19
2023-05-03T00:15:03.192Z,5.20
2023-05-03T00:16:03.024Z,5.17
2023-05-03T00:17:03.080Z,5.19
2023-05-03T00:18:03.081Z,5.16
2023-05-03T00:19:02.636Z,5.13
2023-05-03T00:20:02.667Z,5.12
2023-05-03T00:21:03.101Z,5.10
2023-05-03T00:22:03.263Z,5.12
2023-05-03T00:23:02.938Z,5.09
2023-05-03T00:24:02.983Z,5.04
2023-05-03T00:25:02.578Z,5.09
2023-05-03T00:26:02.574Z,5.05
2023-05-03T00:27:03.305Z,5.05
2023-05-03T00:28:03.245Z,4.94
2023-05-03T00:29:03.278Z,4.95
2023-05-03T00:30:03.522Z,4.94
2023-05-03T00:31:03.143Z,4.96
2023-05-03T00:32:02.985Z,4.98
2023-05-03T00:33:02.956Z,4.96
2023-05-03T00:34:02.851Z,4.98
2023-05-03T00:35:03.128Z,4.99
2023-05-03T00:36:02.938Z,4.96
2023-05-03T00:37:02.937Z,4.99
2023-05-03T00:38:02.869Z,4.98
2023-05-03T00:39:03.194Z,4.98
2023-05-03T00:40:03.510Z,4.98
2023-05-03T00:41:03.258Z,4.96
2023-05-03T00:42:03.065Z,4.94
2023-05-03T00:43:03.195Z,4.95
2023-05-03T00:44:02.991Z,4.94
2023-05-03T00:45:02.790Z,4.92
2023-05-03T00:46:15.238Z,4.88
2023-05-03T00:47:03.047Z,4.86
2023-05-03T00:48:03.607Z,4.84
2023-05-03T00:49:03.132Z,4.84
2023-05-03T00:50:03.320Z,4.83
2023-05-03T00:51:02.984Z,4.80
2023-05-03T00:52:02.883Z,4.77
2023-05-03T00:53:02.706Z,4.75
2023-05-03T00:54:02.719Z,4.70
2023-05-03T00:55:02.601Z,4.70
2023-05-03T00:56:02.666Z,4.65
2023-05-03T00:57:03.232Z,4.65
2023-05-03T00:58:03.657Z,4.62
2023-05-03T00:59:03.163Z,4.62
2023-05-03T01:00:03.774Z,4.62
2023-05-03T01:01:03.482Z,4.54
2023-05-03T01:02:02.365Z,4.54
2023-05-03T01:03:02.807Z,4.52
2023-05-03T01:04:02.337Z,4.55
2023-05-03T01:05:02.431Z,4.55
2023-05-03T01:06:02.418Z,4.58
2023-05-03T01:07:02.159Z,4.58
2023-05-03T01:08:02.201Z,4.58
2023-05-03T01:09:02.695Z,4.55
2023-05-03T01:10:02.624Z,4.50
2023-05-03T01:11:02.551Z,4.50
2023-05-03T01:12:02.399Z,4.43
2023-05-03T01:13:02.294Z,4.40
2023-05-03T01:14:02.914Z,4.34
2023-05-03T01:15:02.565Z,4.33
2023-05-03T01:16:02.967Z,4.28
2023-05-03T01:17:02.417Z,4.21
2023-05-03T01:18:02.480Z,4.18
2023-05-03T01:19:02.424Z,4.19
2023-05-03T01:20:02.460Z,4.24
2023-05-03T01:21:02.251Z,4.26
2023-05-03T01:22:02.813Z,4.32
2023-05-03T01:23:02.828Z,4.36
2023-05-03T01:24:03.129Z,4.34
2023-05-03T01:25:02.837Z,4.34
2023-05-03T01:26:03.153Z,4.36
2023-05-03T01:27:02.728Z,4.32
2023-05-03T01:28:02.240Z,4.29
2023-05-03T01:29:02.105Z,4.33
2023-05-03T01:30:02.489Z,4.33
2023-05-03T01:31:02.158Z,4.37
2023-05-03T01:32:02.791Z,4.34
2023-05-03T01:33:02.640Z,4.36
2023-05-03T01:34:02.675Z,4.36
2023-05-03T01:35:02.601Z,4.37
2023-05-03T01:36:02.876Z,4.34
2023-05-03T01:37:02.612Z,4.28
2023-05-03T01:38:03.025Z,4.24
2023-05-03T01:39:02.604Z,4.21
2023-05-03T01:40:02.706Z,4.22
2023-05-03T01:41:03.033Z,4.22
2023-05-03T01:42:02.234Z,4.25
2023-05-03T01:43:02.750Z,4.28
2023-05-03T01:44:02.404Z,4.26
2023-05-03T01:45:02.752Z,4.28
2023-05-03T01:46:02.389Z,4.26
2023-05-03T01:47:02.933Z,4.25
2023-05-03T01:48:02.822Z,4.28
2023-05-03T01:49:02.797Z,4.26
2023-05-03T01:50:03.044Z,4.26
2023-05-03T01:51:03.110Z,4.26
2023-05-03T01:52:02.528Z,4.28
2023-05-03T01:53:02.361Z,4.29
2023-05-03T01:54:02.175Z,4.25
2023-05-03T01:55:02.112Z,4.28
2023-05-03T01:56:02.349Z,4.26
2023-05-03T01:57:02.734Z,4.25
2023-05-03T01:58:02.581Z,4.24
2023-05-03T01:59:02.659Z,4.21
2023-05-03T02:00:02.757Z,4.19
2023-05-03T02:01:02.311Z,4.19
2023-05-03T02:02:02.713Z,4.14
2023-05-03T02:03:02.717Z,4.14
2023-05-03T02:04:03.056Z,4.08
2023-05-03T02:05:02.965Z,4.04
2023-05-03T02:06:02.638Z,3.94
2023-05-03T02:07:03.226Z,3.90
2023-05-03T02:08:02.956Z,3.88
2023-05-03T02:09:02.991Z,3.85
2023-05-03T02:10:02.923Z,3.83
2023-05-03T02:11:03.157Z,3.83
2023-05-03T02:12:02.629Z,3.76
2023-05-03T02:13:02.692Z,3.68
2023-05-03T02:14:02.198Z,3.62
2023-05-03T02:15:02.740Z,3.62
2023-05-03T02:16:02.102Z,3.62
2023-05-03T02:17:02.237Z,3.62
2023-05-03T02:18:02.773Z,3.60
2023-05-03T02:19:02.568Z,3.64
2023-05-03T02:20:02.697Z,3.62
2023-05-03T02:21:02.347Z,3.67
2023-05-03T02:22:02.955Z,3.67
2023-05-03T02:23:02.864Z,3.68
2023-05-03T02:24:02.467Z,3.70
2023-05-03T02:25:02.769Z,3.72
2023-05-03T02:26:02.717Z,3.75
2023-05-03T02:27:02.304Z,3.76
2023-05-03T02:28:02.056Z,3.78
2023-05-03T02:29:01.926Z,3.79
2023-05-03T02:30:02.118Z,3.79
2023-05-03T02:31:01.875Z,3.82
2023-05-03T02:32:02.291Z,3.80
2023-05-03T02:33:02.035Z,3.79
2023-05-03T02:34:01.930Z,3.76
2023-05-03T02:35:01.746Z,3.79
2023-05-03T02:36:02.269Z,3.76
2023-05-03T02:37:02.223Z,3.70
2023-05-03T02:38:02.396Z,3.64
2023-05-03T02:39:02.352Z,3.64
2023-05-03T02:40:02.686Z,3.62
2023-05-03T02:41:02.201Z,3.64
2023-05-03T02:42:02.404Z,3.65
2023-05-03T02:43:02.778Z,3.68
2023-05-03T02:44:02.716Z,3.60
2023-05-03T02:45:02.275Z,3.46
2023-05-03T02:46:02.387Z,3.43
2023-05-03T02:47:02.447Z,3.47
2023-05-03T02:48:02.433Z,3.46
2023-05-03T02:49:02.298Z,3.52
2023-05-03T02:50:02.523Z,3.53
2023-05-03T02:51:02.394Z,3.53
2023-05-03T02:52:02.485Z,3.46
2023-05-03T02:53:01.868Z,3.39
2023-05-03T02:54:01.968Z,3.36
2023-05-03T02:55:02.478Z,3.39
2023-05-03T02:56:02.006Z,3.40
2023-05-03T02:57:02.668Z,3.42
2023-05-03T02:58:02.526Z,3.34
2023-05-03T02:59:02.987Z,3.31
2023-05-03T03:00:02.966Z,3.31
2023-05-03T03:01:02.646Z,3.34
2023-05-03T03:02:03.273Z,3.34
2023-05-03T03:03:02.715Z,3.39
2023-05-03T03:04:02.686Z,3.39
2023-05-03T03:05:02.607Z,3.40
2023-05-03T03:06:02.908Z,3.40
2023-05-03T03:07:02.989Z,3.42
2023-05-03T03:08:03.240Z,3.39
2023-05-03T03:09:03.093Z,3.42
2023-05-03T03:10:03.046Z,3.40
2023-05-03T03:11:02.984Z,3.43
2023-05-03T03:12:02.810Z,3.44
2023-05-03T03:13:03.020Z,3.42
2023-05-03T03:14:02.829Z,3.34
2023-05-03T03:15:03.134Z,3.33
2023-05-03T03:16:03.090Z,3.20
2023-05-03T03:17:02.166Z,3.15
2023-05-03T03:18:02.653Z,3.06
2023-05-03T03:19:02.645Z,3.07
2023-05-03T03:20:02.953Z,3.12
2023-05-03T03:21:02.726Z,3.13
2023-05-03T03:22:02.233Z,3.12
2023-05-03T03:23:02.731Z,3.15
2023-05-03T03:24:02.526Z,3.18
2023-05-03T03:25:02.333Z,3.20
2023-05-03T03:26:02.884Z,3.23
2023-05-03T03:27:02.553Z,3.16
2023-05-03T03:28:02.926Z,3.16
2023-05-03T03:29:02.678Z,3.02
2023-05-03T03:30:03.253Z,2.98
2023-05-03T03:31:03.144Z,3.00
2023-05-03T03:32:02.699Z,3.03
2023-05-03T03:33:02.847Z,3.03
2023-05-03T03:34:03.154Z,3.00
2023-05-03T03:35:03.318Z,2.97
2023-05-03T03:36:02.751Z,3.02
2023-05-03T03:37:02.766Z,3.02
2023-05-03T03:38:03.197Z,2.97
2023-05-03T03:39:03.109Z,2.91
2023-05-03T03:40:02.970Z,2.87
2023-05-03T03:41:02.995Z,2.84
2023-05-03T03:42:02.280Z,2.73
2023-05-03T03:43:02.658Z,2.69
2023-05-03T03:44:02.438Z,2.67
2023-05-03T03:45:02.429Z,2.61
2023-05-03T03:46:02.668Z,2.59
2023-05-03T03:47:02.580Z,2.66
2023-05-03T03:48:03.123Z,2.67
2023-05-03T03:49:02.498Z,2.74
2023-05-03T03:50:03.128Z,2.76
2023-05-03T03:51:02.877Z,2.81
2023-05-03T03:52:03.266Z,2.79
2023-05-03T03:53:02.787Z,2.81
2023-05-03T03:54:03.276Z,2.82
2023-05-03T03:55:03.011Z,2.88
2023-05-03T03:56:02.873Z,2.85
2023-05-03T03:57:02.388Z,2.84
2023-05-03T03:58:02.520Z,2.84
2023-05-03T03:59:02.476Z,2.84
2023-05-03T04:00:02.796Z,2.82
2023-05-03T04:01:02.131Z,2.81
2023-05-03T04:02:02.703Z,2.82
2023-05-03T04:03:04.114Z,2.82
2023-05-03T04:04:03.333Z,2.81
2023-05-03T04:05:02.748Z,2.76
2023-05-03T04:06:02.797Z,2.73
2023-05-03T04:07:02.746Z,2.71
2023-05-03T04:08:02.749Z,2.71
2023-05-03T04:09:02.554Z,2.69
2023-05-03T04:10:03.139Z,2.70
2023-05-03T04:11:02.702Z,2.73
2023-05-03T04:12:02.476Z,2.73
2023-05-03T04:13:02.314Z,2.73
2023-05-03T04:14:02.855Z,2.73
2023-05-03T04:15:02.759Z,2.77
2023-05-03T04:16:04.563Z,2.79
2023-05-03T04:17:02.561Z,2.82
2023-05-03T04:18:02.891Z,2.81
2023-05-03T04:19:02.409Z,2.84
2023-05-03T04:20:02.543Z,2.85
2023-05-03T04:21:02.308Z,2.84
2023-05-03T04:22:03.072Z,2.85
2023-05-03T04:23:02.573Z,2.85
2023-05-03T04:24:02.766Z,2.87
2023-05-03T04:25:02.707Z,2.87
2023-05-03T04:26:04.692Z,2.88
2023-05-03T04:27:03.126Z,2.87
2023-05-03T04:28:03.289Z,2.73
2023-05-03T04:29:03.035Z,2.64
2023-05-03T04:30:03.568Z,2.51
2023-05-03T04:31:03.566Z,2.44
2023-05-03T04:32:02.299Z,2.45
2023-05-03T04:33:02.153Z,2.44
2023-05-03T04:34:02.328Z,2.37
2023-05-03T04:35:02.601Z,2.31
2023-05-03T04:36:02.512Z,2.38
2023-05-03T04:37:02.378Z,2.46
2023-05-03T04:38:02.321Z,2.51
2023-05-03T04:39:02.331Z,2.56
2023-05-03T04:40:02.791Z,2.59
2023-05-03T04:41:02.098Z,2.64
2023-05-03T04:42:02.969Z,2.66
2023-05-03T04:43:03.048Z,2.70
2023-05-03T04:44:03.129Z,2.73
2023-05-03T04:45:03.119Z,2.76
2023-05-03T04:46:02.928Z,2.81
2023-05-03T04:47:02.792Z,2.84
2023-05-03T04:48:03.198Z,2.84
2023-05-03T04:49:02.846Z,2.88
2023-05-03T04:50:03.014Z,2.87
2023-05-03T04:51:02.917Z,2.89
2023-05-03T04:52:02.772Z,2.92
2023-05-03T04:53:02.549Z,2.91
2023-05-03T04:54:02.516Z,2.94
2023-05-03T04:55:02.714Z,2.94
2023-05-03T04:56:02.303Z,2.97
2023-05-03T04:57:03.276Z,2.98
2023-05-03T04:58:02.947Z,2.97
2023-05-03T04:59:03.191Z,3.00
2023-05-03T05:00:03.120Z,3.03
2023-05-03T05:01:03.078Z,3.03
2023-05-03T05:02:02.779Z,3.05
2023-05-03T05:03:02.936Z,3.06
2023-05-03T05:04:02.521Z,3.07
2023-05-03T05:05:02.381Z,3.10
2023-05-03T05:06:02.756Z,3.10
2023-05-03T05:07:02.519Z,3.15
2023-05-03T05:08:02.637Z,3.24
2023-05-03T05:09:02.782Z,3.27
2023-05-03T05:10:02.964Z,3.28
2023-05-03T05:11:02.667Z,3.36
2023-05-03T05:12:02.161Z,3.39
2023-05-03T05:13:02.290Z,3.42
2023-05-03T05:14:02.191Z,3.44
2023-05-03T05:15:02.183Z,3.50
2023-05-03T05:16:02.332Z,3.58
2023-05-03T05:17:02.766Z,3.67
2023-05-03T05:18:02.797Z,3.72
2023-05-03T05:19:02.569Z,3.78
2023-05-03T05:20:02.789Z,3.83
2023-05-03T05:21:02.603Z,3.94
2023-05-03T05:22:02.139Z,4.00
2023-05-03T05:23:02.009Z,4.06
2023-05-03T05:24:01.922Z,4.04
2023-05-03T05:25:01.798Z,4.03
2023-05-03T05:26:01.676Z,4.06
2023-05-03T05:27:02.403Z,4.04
2023-05-03T05:28:02.213Z,4.14
2023-05-03T05:29:01.885Z,4.22
2023-05-03T05:30:02.225Z,4.33
2023-05-03T05:31:02.026Z,4.42
2023-05-03T05:32:02.529Z,4.50
2023-05-03T05:33:02.542Z,4.57
2023-05-03T05:34:02.716Z,4.59
2023-05-03T05:35:02.500Z,4.72
2023-05-03T05:36:02.121Z,4.88
2023-05-03T05:37:01.697Z,4.96
2023-05-03T05:38:01.551Z,5.01
2023-05-03T05:39:01.885Z,5.01
2023-05-03T05:40:01.742Z,4.98
2023-05-03T05:41:01.575Z,4.99
2023-05-03T05:42:02.413Z,5.05
2023-05-03T05:43:02.161Z,5.09
2023-05-03T05:44:02.279Z,5.20
2023-05-03T05:45:01.838Z,5.30
2023-05-03T05:46:01.874Z,5.31
2023-05-03T05:47:02.818Z,5.32
2023-05-03T05:48:02.756Z,5.30
2023-05-03T05:49:02.616Z,5.27
2023-05-03T05:50:04.526Z,5.27
2023-05-03T05:51:02.482Z,5.34
2023-05-03T05:52:02.092Z,5.34
2023-05-03T05:53:01.788Z,5.43
2023-05-03T05:54:01.980Z,5.53
2023-05-03T05:55:02.246Z,5.63
2023-05-03T05:56:02.336Z,5.75
2023-05-03T05:57:02.380Z,5.82
2023-05-03T05:58:02.548Z,5.82
2023-05-03T05:59:02.351Z,5.89
2023-05-03T06:00:02.631Z,6.01
2023-05-03T06:01:02.237Z,6.11
2023-05-03T06:02:02.683Z,6.25
2023-05-03T06:03:02.481Z,6.40
2023-05-03T06:04:02.309Z,6.47
2023-05-03T06:05:02.421Z,6.51
2023-05-03T06:06:02.636Z,6.53
2023-05-03T06:07:02.466Z,6.58
2023-05-03T06:08:02.397Z,6.65
2023-05-03T06:09:09.813Z,6.68
2023-05-03T06:10:02.435Z,6.79
2023-05-03T06:11:02.266Z,6.89
2023-05-03T06:12:02.526Z,6.98
2023-05-03T06:13:02.587Z,7.08
2023-05-03T06:14:02.392Z,7.13
2023-05-03T06:15:03.290Z,7.19
2023-05-03T06:16:02.306Z,7.23
2023-05-03T06:17:02.453Z,7.37
2023-05-03T06:18:02.877Z,7.53
2023-05-03T06:19:02.227Z,7.72
2023-05-03T06:20:02.720Z,7.93
2023-05-03T06:21:02.288Z,8.10
2023-05-03T06:22:02.479Z,8.21
2023-05-03T06:23:02.917Z,8.33
2023-05-03T06:24:03.031Z,8.45
2023-05-03T06:25:02.531Z,8.53
2023-05-03T06:26:02.522Z,8.55
2023-05-03T06:27:01.915Z,8.62
2023-05-03T06:28:02.036Z,8.66
2023-05-03T06:29:02.182Z,8.75
2023-05-03T06:30:02.252Z,8.83
2023-05-03T06:31:02.014Z,8.90
2023-05-03T06:32:01.676Z,9.01
2023-05-03T06:33:01.636Z,9.12
2023-05-03T06:34:01.684Z,9.18
2023-05-03T06:35:01.586Z,9.30
2023-05-03T06:36:02.000Z,9.35
2023-05-03T06:37:02.047Z,9.43
2023-05-03T06:38:02.256Z,9.53
2023-05-03T06:39:01.905Z,9.64
2023-05-03T06:40:02.306Z,9.73
2023-05-03T06:41:02.215Z,9.81
2023-05-03T06:42:02.160Z,9.86
2023-05-03T06:43:02.090Z,9.89
2023-05-03T06:44:02.143Z,9.93
2023-05-03T06:45:02.113Z,9.89
2023-05-03T06:46:02.444Z,9.91
2023-05-03T06:47:02.542Z,9.96
2023-05-03T06:48:03.075Z,10.00
2023-05-03T06:49:02.965Z,10.04
2023-05-03T06:50:02.801Z,10.06
2023-05-03T06:51:02.555Z,10.07
2023-05-03T06:52:01.736Z,10.14
2023-05-03T06:53:02.132Z,10.22
2023-05-03T06:54:01.851Z,10.32
2023-05-03T06:55:01.744Z,10.42
2023-05-03T06:56:01.688Z,10.52
2023-05-03T06:57:01.872Z,10.62
2023-05-03T06:58:02.116Z,10.65
2023-05-03T06:59:02.281Z,10.74
2023-05-03T07:00:02.071Z,10.80
2023-05-03T07:01:01.985Z,10.89
2023-05-03T07:02:02.076Z,10.92
2023-05-03T07:03:02.273Z,10.99
2023-05-03T07:04:02.528Z,11.06
2023-05-03T07:05:01.959Z,11.10
2023-05-03T07:06:02.067Z,11.11
2023-05-03T07:07:02.553Z,11.16
2023-05-03T07:08:02.345Z,11.25
2023-05-03T07:09:02.723Z,11.29
2023-05-03T07:10:02.353Z,11.31
2023-05-03T07:11:02.208Z,11.38
2023-05-03T07:12:02.040Z,11.44
2023-05-03T07:13:01.972Z,11.44
2023-05-03T07:14:02.015Z,11.53
2023-05-03T07:15:01.858Z,11.61
2023-05-03T07:16:03.678Z,11.71
2023-05-03T07:17:02.471Z,11.83
2023-05-03T07:18:02.353Z,11.83
2023-05-03T07:19:02.499Z,11.85
2023-05-03T07:20:02.302Z,11.93
2023-05-03T07:21:02.360Z,12.01
2023-05-03T07:22:01.827Z,12.02
2023-05-03T07:23:01.998Z,12.06
2023-05-03T07:24:01.898Z,12.09
2023-05-03T07:25:01.919Z,12.19
2023-05-03T07:26:01.876Z,12.29
2023-05-03T07:27:02.461Z,12.20
2023-05-03T07:28:02.823Z,12.27
2023-05-03T07:29:02.262Z,12.41
2023-05-03T07:30:02.494Z,12.51
2023-05-03T07:31:02.398Z,12.63
2023-05-03T07:32:01.755Z,12.69
2023-05-03T07:33:02.005Z,12.75
2023-05-03T07:34:02.133Z,12.62
2023-05-03T07:35:02.041Z,12.66
2023-05-03T07:36:02.044Z,12.77
2023-05-03T07:37:02.367Z,12.87
2023-05-03T07:38:02.151Z,12.92
2023-05-03T07:39:02.150Z,12.88
2023-05-03T07:40:02.493Z,12.89
2023-05-03T07:41:02.073Z,12.99
2023-05-03T07:42:02.754Z,13.12
2023-05-03T07:43:02.901Z,13.25
2023-05-03T07:44:02.912Z,13.37
2023-05-03T07:45:02.470Z,13.43
2023-05-03T07:46:02.565Z,13.33
2023-05-03T07:47:01.880Z,13.44
2023-05-03T07:48:02.017Z,13.46
2023-05-03T07:49:01.856Z,13.52
2023-05-03T07:50:02.316Z,13.58
2023-05-03T07:51:01.529Z,13.65
2023-05-03T07:52:02.473Z,13.73
2023-05-03T07:53:02.621Z,13.81
2023-05-03T07:54:02.409Z,13.91
2023-05-03T07:55:02.634Z,13.99
2023-05-03T07:56:02.584Z,14.04
2023-05-03T07:57:02.486Z,14.06
2023-05-03T07:58:02.307Z,14.06
2023-05-03T08:00:02.870Z,14.09
2023-05-03T08:01:02.545Z,14.13
2023-05-03T08:02:03.221Z,14.07
2023-05-03T08:03:03.265Z,14.07
2023-05-03T08:04:03.021Z,14.13
2023-05-03T08:05:03.256Z,14.17
2023-05-03T08:06:03.122Z,14.19
2023-05-03T08:07:03.598Z,14.20
2023-05-03T08:08:03.522Z,14.21
2023-05-03T08:09:03.256Z,14.24
2023-05-03T08:10:03.503Z,14.25
2023-05-03T08:11:03.399Z,14.32
2023-05-03T08:12:03.718Z,14.29
2023-05-03T08:13:03.401Z,14.29
2023-05-03T08:14:03.469Z,14.34
2023-05-03T08:15:03.454Z,14.47
2023-05-03T08:16:03.549Z,14.60
2023-05-03T08:17:02.871Z,14.78
2023-05-03T08:18:02.831Z,14.90
2023-05-03T08:19:02.937Z,14.88
2023-05-03T08:20:03.219Z,14.83
2023-05-03T08:21:02.414Z,14.74
2023-05-03T08:22:03.239Z,14.62
2023-05-03T08:23:03.212Z,14.56
2023-05-03T08:24:02.964Z,14.60
2023-05-03T08:25:03.331Z,14.64
2023-05-03T08:26:02.877Z,14.67
2023-05-03T08:27:03.790Z,14.69
2023-05-03T08:28:03.250Z,14.75
2023-05-03T08:29:03.421Z,14.93
2023-05-03T08:30:04.181Z,14.98
2023-05-03T08:31:03.497Z,15.09
2023-05-03T08:32:03.169Z,15.13
2023-05-03T08:33:03.270Z,15.26
2023-05-03T08:34:03.076Z,15.35
2023-05-03T08:35:02.877Z,15.33
2023-05-03T08:36:02.928Z,15.27
2023-05-03T08:37:03.423Z,15.27
2023-05-03T08:38:02.939Z,15.23
2023-05-03T08:39:02.972Z,15.20
2023-05-03T08:40:03.340Z,15.09
2023-05-03T08:41:02.883Z,15.06
2023-05-03T08:42:03.082Z,15.13
2023-05-03T08:43:02.814Z,15.21
2023-05-03T08:44:03.115Z,15.36
2023-05-03T08:45:02.554Z,15.49
2023-05-03T08:46:02.711Z,15.61
2023-05-03T08:47:03.128Z,15.66
2023-05-03T08:48:03.753Z,15.57
2023-05-03T08:49:03.446Z,15.66
2023-05-03T08:50:03.700Z,15.74
2023-05-03T08:51:03.663Z,15.82
2023-05-03T08:52:02.626Z,15.85
2023-05-03T08:53:02.693Z,15.75
2023-05-03T08:54:02.632Z,15.75
2023-05-03T08:55:02.609Z,15.84
2023-05-03T08:56:02.684Z,15.92
2023-05-03T08:57:03.423Z,15.89
2023-05-03T08:58:03.014Z,15.89
2023-05-03T08:59:02.807Z,15.88
2023-05-03T09:00:03.462Z,15.89
2023-05-03T09:01:03.359Z,15.94
2023-05-03T09:02:03.013Z,16.00
2023-05-03T09:03:02.487Z,16.11
2023-05-03T09:04:02.985Z,16.23
2023-05-03T09:05:03.106Z,16.30
2023-05-03T09:06:02.566Z,16.22
2023-05-03T09:07:02.064Z,16.03
2023-05-03T09:08:02.244Z,16.01
2023-05-03T09:09:02.246Z,16.06
2023-05-03T09:10:02.487Z,16.04
2023-05-03T09:11:02.135Z,16.09
2023-05-03T09:12:02.192Z,16.22
2023-05-03T09:13:02.434Z,16.40
2023-05-03T09:14:02.536Z,16.42
2023-05-03T09:15:02.105Z,16.48
2023-05-03T09:16:02.626Z,16.55
2023-05-03T09:17:01.603Z,16.62
2023-05-03T09:18:01.834Z,16.70
2023-05-03T09:19:01.899Z,16.83
2023-05-03T09:20:02.085Z,16.89
2023-05-03T09:21:01.728Z,16.86
2023-05-03T09:22:02.021Z,16.81
2023-05-03T09:23:02.237Z,16.77
2023-05-03T09:24:01.853Z,16.74
2023-05-03T09:25:02.026Z,16.75
2023-05-03T09:26:02.027Z,16.81
2023-05-03T09:27:01.809Z,16.92
2023-05-03T09:28:02.315Z,16.88
2023-05-03T09:29:02.016Z,16.98
2023-05-03T09:30:02.318Z,17.07
2023-05-03T09:31:01.758Z,17.11
2023-05-03T09:32:02.302Z,17.11
2023-05-03T09:33:02.513Z,17.08
2023-05-03T09:34:02.134Z,17.13
2023-05-03T09:35:02.815Z,17.20
2023-05-03T09:36:02.121Z,17.15
2023-05-03T09:37:01.944Z,17.15
2023-05-03T09:38:01.773Z,17.26
2023-05-03T09:39:01.931Z,17.32
2023-05-03T09:40:02.021Z,17.36
2023-05-03T09:41:02.314Z,17.51
2023-05-03T09:42:02.112Z,17.57
2023-05-03T09:43:03.671Z,17.57
2023-05-03T09:44:02.357Z,17.64
2023-05-03T09:45:02.800Z,17.76
2023-05-03T09:46:02.106Z,17.76
2023-05-03T09:47:02.306Z,17.87
2023-05-03T09:48:02.236Z,17.97
2023-05-03T09:49:02.724Z,17.97
2023-05-03T09:50:02.471Z,17.94
2023-05-03T09:51:02.609Z,17.89
2023-05-03T09:52:01.848Z,17.79
2023-05-03T09:53:01.974Z,17.67
2023-05-03T09:54:01.662Z,17.51
2023-05-03T09:55:02.070Z,17.43
2023-05-03T09:56:02.078Z,17.33
2023-05-03T09:57:02.505Z,17.30
2023-05-03T09:58:02.660Z,17.46
2023-05-03T09:59:02.480Z,17.47
2023-05-03T10:00:02.454Z,17.51
2023-05-03T10:01:02.580Z,17.66
2023-05-03T10:02:03.017Z,17.82
2023-05-03T10:03:03.061Z,17.92
2023-05-03T10:04:03.085Z,17.91
2023-05-03T10:05:03.478Z,17.94
2023-05-03T10:06:03.081Z,18.03
2023-05-03T10:07:03.395Z,18.15
2023-05-03T10:08:03.567Z,18.22
2023-05-03T10:09:03.803Z,18.13
2023-05-03T10:10:03.192Z,18.06
2023-05-03T10:11:03.329Z,18.18
2023-05-03T10:12:03.038Z,18.34
2023-05-03T10:13:02.887Z,18.50
2023-05-03T10:14:02.903Z,18.54
2023-05-03T10:15:03.229Z,18.57
2023-05-03T10:16:03.370Z,18.57
2023-05-03T10:17:03.146Z,18.55
2023-05-03T10:18:03.165Z,18.59
2023-05-03T10:19:03.367Z,18.67
2023-05-03T10:20:03.600Z,18.77
2023-05-03T10:21:03.119Z,18.82
2023-05-03T10:22:03.536Z,18.94
2023-05-03T10:23:03.576Z,18.95
2023-05-03T10:24:03.467Z,18.99
2023-05-03T10:25:03.381Z,18.91
2023-05-03T10:26:03.289Z,18.76
2023-05-03T10:27:03.303Z,18.76
2023-05-03T10:28:03.627Z,18.91
2023-05-03T10:29:03.419Z,19.08
2023-05-03T10:30:03.683Z,19.11
2023-05-03T10:31:03.678Z,19.06
2023-05-03T10:32:02.695Z,18.98
2023-05-03T10:33:02.887Z,18.98
2023-05-03T10:34:03.069Z,19.01
2023-05-03T10:35:03.569Z,19.11
2023-05-03T10:36:03.102Z,19.23
2023-05-03T10:37:03.147Z,19.40
2023-05-03T10:38:03.336Z,19.58
2023-05-03T10:39:03.579Z,19.66
2023-05-03T10:40:03.391Z,19.58
2023-05-03T10:41:03.509Z,19.47
2023-05-03T10:42:02.811Z,19.40
2023-05-03T10:43:02.997Z,19.50
2023-05-03T10:44:02.422Z,19.68
2023-05-03T10:45:03.046Z,19.87
2023-05-03T10:46:02.930Z,19.95
2023-05-03T10:47:03.036Z,19.97
2023-05-03T10:48:03.196Z,19.94
2023-05-03T10:49:02.782Z,19.98
2023-05-03T10:50:03.026Z,19.98
2023-05-03T10:51:03.232Z,19.98
2023-05-03T10:52:02.821Z,20.06
2023-05-03T10:53:03.068Z,20.20
2023-05-03T10:54:03.378Z,20.25
2023-05-03T10:55:03.080Z,20.34
2023-05-03T10:56:03.426Z,20.23
2023-05-03T10:57:03.551Z,20.05
2023-05-03T10:58:03.240Z,19.73
2023-05-03T10:59:03.641Z,19.65
2023-05-03T11:00:03.621Z,19.60
2023-05-03T11:01:03.273Z,19.55
2023-05-03T11:02:02.917Z,19.47
2023-05-03T11:03:02.531Z,19.51
2023-05-03T11:04:03.120Z,19.66
2023-05-03T11:05:02.994Z,19.76
2023-05-03T11:06:02.651Z,19.90
2023-05-03T11:07:03.430Z,20.06
2023-05-03T11:08:03.302Z,20.25
2023-05-03T11:09:03.620Z,20.42
2023-05-03T11:10:03.550Z,20.56
2023-05-03T11:11:03.090Z,20.47
2023-05-03T11:12:03.218Z,20.34
2023-05-03T11:13:02.951Z,20.30
2023-05-03T11:14:03.057Z,20.03
2023-05-03T11:15:03.013Z,19.95
2023-05-03T11:16:03.252Z,20.08
2023-05-03T11:17:03.610Z,20.15
2023-05-03T11:18:03.706Z,20.24
2023-05-03T11:19:03.310Z,20.28
2023-05-03T11:20:03.476Z,20.38
2023-05-03T11:21:03.449Z,20.38
2023-05-03T11:22:03.062Z,20.23
2023-05-03T11:23:03.183Z,20.23
2023-05-03T11:24:02.973Z,20.27
2023-05-03T11:25:02.888Z,20.39
2023-05-03T11:26:02.769Z,20.51
2023-05-03T11:27:08.343Z,20.51
2023-05-03T11:28:03.844Z,20.61
2023-05-03T11:29:03.281Z,20.74
2023-05-03T11:30:03.041Z,20.53
2023-05-03T11:31:03.044Z,20.43
2023-05-03T11:32:03.164Z,20.43
2023-05-03T11:33:02.516Z,20.41
2023-05-03T11:34:02.576Z,20.41
2023-05-03T11:35:02.813Z,20.50
2023-05-03T11:36:03.032Z,20.39
2023-05-03T11:37:03.067Z,20.33
2023-05-03T11:38:02.903Z,20.47
2023-05-03T11:39:03.149Z,20.47
2023-05-03T11:40:02.560Z,20.53
2023-05-03T11:41:02.625Z,20.47
2023-05-03T11:42:03.125Z,20.51
2023-05-03T11:43:02.844Z,20.62
2023-05-03T11:44:15.425Z,20.71
2023-05-03T11:45:03.791Z,20.81
2023-05-03T11:46:03.012Z,20.84
2023-05-03T11:47:04.200Z,20.77
2023-05-03T11:48:03.851Z,20.74
2023-05-03T11:49:03.350Z,20.80
2023-05-03T11:50:03.583Z,21.04
2023-05-03T11:51:03.676Z,21.19
2023-05-03T11:52:03.915Z,21.36
2023-05-03T11:53:03.496Z,21.46
2023-05-03T11:54:13.041Z,21.56
2023-05-03T11:55:03.667Z,21.59
2023-05-03T11:56:03.401Z,21.53
2023-05-03T11:57:03.434Z,21.48
2023-05-03T11:58:03.316Z,21.41
2023-05-03T11:59:03.402Z,21.41
2023-05-03T12:00:03.209Z,21.54
2023-05-03T12:01:03.452Z,21.76
2023-05-03T12:02:02.323Z,21.91
2023-05-03T12:03:02.830Z,21.82
2023-05-03T12:04:02.771Z,21.67
2023-05-03T12:05:03.712Z,21.78
2023-05-03T12:06:03.363Z,21.81
2023-05-03T12:07:03.364Z,21.91
2023-05-03T12:08:02.861Z,22.01
2023-05-03T12:09:02.856Z,22.02
2023-05-03T12:11:03.910Z,22.19
2023-05-03T12:12:03.303Z,22.34
2023-05-03T12:13:05.141Z,22.41
2023-05-03T12:14:03.312Z,22.31
2023-05-03T12:15:04.062Z,22.16
2023-05-03T12:16:11.791Z,22.02
2023-05-03T12:17:02.967Z,22.04
2023-05-03T12:18:04.525Z,22.06
2023-05-03T12:19:03.610Z,22.17
2023-05-03T12:21:28.972Z,22.13
2023-05-03T12:23:04.073Z,22.10
2023-05-03T12:24:05.251Z,22.17
2023-05-03T12:25:04.312Z,22.41
2023-05-03T12:26:05.171Z,22.65
2023-05-03T12:27:03.358Z,22.80
2023-05-03T12:28:18.904Z,22.89
2023-05-03T12:29:02.779Z,23.04
2023-05-03T12:30:02.464Z,23.09
2023-05-03T12:31:04.995Z,23.19
2023-05-03T12:32:02.315Z,23.23
2023-05-03T12:33:04.858Z,23.34
2023-05-03T12:34:30.892Z,23.43
2023-05-03T12:35:03.452Z,23.24
2023-05-03T12:36:04.399Z,23.11
2023-05-03T12:37:04.478Z,23.11
2023-05-03T12:38:03.014Z,23.07
2023-05-03T12:39:03.034Z,22.92
2023-05-03T12:40:28.998Z,22.78
2023-05-03T12:41:02.701Z,22.84
2023-05-03T12:42:07.206Z,22.93
2023-05-03T12:43:03.178Z,23.08
2023-05-03T12:44:03.006Z,23.15
2023-05-03T12:45:04.728Z,23.17
2023-05-03T12:46:31.683Z,23.08
2023-05-03T12:47:03.387Z,23.14
2023-05-03T12:48:03.359Z,23.12
2023-05-03T12:49:06.807Z,23.29
2023-05-03T12:50:06.107Z,23.35
2023-05-03T12:51:18.597Z,23.40
2023-05-03T12:52:23.058Z,23.35
2023-05-03T12:53:03.298Z,23.23
2023-05-03T12:54:03.427Z,22.96
2023-05-03T12:55:03.998Z,22.93
2023-05-03T12:56:06.261Z,23.02
2023-05-03T12:57:06.096Z,23.07
2023-05-03T12:59:31.769Z,23.26
2023-05-03T13:00:04.229Z,23.35
2023-05-03T13:01:37.965Z,23.45
2023-05-03T13:03:09.198Z,23.24
2023-05-03T13:05:09.762Z,23.26
2023-05-03T13:06:11.745Z,23.38
2023-05-03T13:07:03.183Z,23.45
2023-05-03T13:09:03.439Z,23.64
2023-05-03T13:11:02.505Z,23.71
2023-05-03T13:12:02.528Z,23.76
2023-05-03T13:13:03.180Z,23.71
2023-05-03T13:14:03.122Z,23.72